createdAt,value
2018-05-01T08:37:35.687Z,630
2018-05-01T08:38:37.496Z,645
2018-05-01T08:39:39.360Z,645
2018-05-01T08:40:41.233Z,635
2018-05-01T08:41:43.057Z,610
2018-05-01T08:42:44.882Z,590
2018-05-01T08:43:46.778Z,580
2018-05-01T08:44:48.673Z,565
2018-05-01T08:45:50.545Z,570
2018-05-01T08:47:04.703Z,585
2018-05-01T08:48:06.600Z,560
2018-05-01T08:49:08.477Z,530
2018-05-01T08:50:10.345Z,495
2018-05-01T08:51:12.161Z,450
2018-05-01T08:52:13.983Z,420
2018-05-01T08:53:15.878Z,395
2018-05-01T08:54:17.779Z,380
2018-05-01T08:55:19.676Z,380
2018-05-01T08:56:33.834Z,375
2018-05-01T08:57:35.732Z,375
2018-05-01T08:58:37.631Z,385
2018-05-01T08:59:39.533Z,370
2018-05-01T09:00:41.366Z,360
2018-05-01T09:01:43.184Z,370
2018-05-01T09:02:45.054Z,380
2018-05-01T09:03:46.941Z,390
2018-05-01T09:04:48.836Z,405
2018-05-01T09:06:02.991Z,445
2018-05-01T09:07:04.863Z,460
2018-05-01T09:08:06.745Z,435
2018-05-01T09:09:08.656Z,435
2018-05-01T09:10:10.494Z,455
2018-05-01T09:11:12.332Z,455
2018-05-01T09:12:14.207Z,470
2018-05-01T09:13:16.126Z,475
2018-05-01T09:14:18.108Z,490
2018-05-01T09:15:32.289Z,490
2018-05-01T09:16:34.216Z,505
2018-05-01T09:17:36.105Z,520
2018-05-01T09:18:38.035Z,525
2018-05-01T09:19:39.900Z,545
2018-05-01T09:20:41.711Z,575
2018-05-01T09:21:43.620Z,605
2018-05-01T09:22:45.519Z,625
2018-05-01T09:23:47.418Z,575
2018-05-01T09:25:01.631Z,550
2018-05-01T09:26:03.531Z,545
2018-05-01T09:27:05.407Z,555
2018-05-01T09:28:07.287Z,555
2018-05-01T09:29:09.098Z,580
2018-05-01T09:30:10.913Z,580
2018-05-01T09:31:12.796Z,575
2018-05-01T09:32:14.701Z,535
2018-05-01T09:33:16.605Z,500
2018-05-01T09:34:30.782Z,460
2018-05-01T09:35:32.653Z,480
2018-05-01T09:36:34.532Z,480
2018-05-01T09:37:36.429Z,490
2018-05-01T09:38:38.249Z,485
2018-05-01T09:39:40.094Z,490
2018-05-01T09:40:41.996Z,490
2018-05-01T09:41:43.893Z,485
2018-05-01T09:42:45.773Z,470
2018-05-01T09:43:59.934Z,465
2018-05-01T09:45:01.811Z,490
2018-05-01T09:46:03.679Z,495
2018-05-01T09:47:05.558Z,460
2018-05-01T09:48:07.400Z,455
2018-05-01T09:49:09.217Z,460
2018-05-01T09:50:11.118Z,465
2018-05-01T09:51:12.999Z,450
2018-05-01T09:52:14.883Z,450
2018-05-01T09:53:29.038Z,490
2018-05-01T09:54:30.934Z,535
2018-05-01T09:55:32.832Z,570
2018-05-01T09:56:34.772Z,575
2018-05-01T09:57:36.861Z,560
2018-05-01T09:58:38.721Z,560
2018-05-01T09:59:40.664Z,560
2018-05-01T10:00:42.561Z,550
2018-05-01T10:01:44.474Z,545
2018-05-01T10:02:58.633Z,530
2018-05-01T10:04:00.535Z,515
2018-05-01T10:05:02.433Z,525
2018-05-01T10:06:04.310Z,555
2018-05-01T10:07:06.164Z,590
2018-05-01T10:08:08.178Z,555
2018-05-01T10:09:10.888Z,510
2018-05-01T10:10:13.142Z,525
2018-05-01T10:11:14.998Z,540
2018-05-01T10:13:32.310Z,610
2018-05-01T10:14:34.631Z,635
2018-05-01T10:15:36.635Z,655
2018-05-01T10:16:38.507Z,675
2018-05-01T10:18:43.291Z,695
2018-05-01T10:19:45.164Z,720
2018-05-01T10:20:47.043Z,730
2018-05-01T10:22:01.216Z,700
2018-05-01T10:23:03.118Z,645
2018-05-01T10:24:05.021Z,595
2018-05-01T10:25:06.918Z,590
2018-05-01T10:26:08.740Z,590
2018-05-01T10:27:10.576Z,575
2018-05-01T10:28:12.464Z,565
2018-05-01T10:29:14.361Z,550
2018-05-01T10:30:16.238Z,530
2018-05-01T10:31:30.397Z,515
2018-05-01T10:32:32.299Z,535
2018-05-01T10:33:34.209Z,540
2018-05-01T10:34:36.082Z,575
2018-05-01T10:35:37.923Z,605
2018-05-01T10:36:39.742Z,585
2018-05-01T10:37:41.639Z,555
2018-05-01T10:38:43.576Z,580
2018-05-01T10:39:45.419Z,555
2018-05-01T10:40:59.578Z,490
2018-05-01T10:42:01.479Z,440
2018-05-01T10:43:03.374Z,425
2018-05-01T10:44:05.314Z,435
2018-05-01T10:45:07.079Z,480
2018-05-01T10:46:08.934Z,525
2018-05-01T10:47:10.806Z,550
2018-05-01T10:48:12.714Z,555
2018-05-01T10:49:14.616Z,560
2018-05-01T10:50:28.822Z,555
2018-05-01T10:51:30.740Z,535
2018-05-01T10:52:32.631Z,545
2018-05-01T10:53:34.531Z,550
2018-05-01T10:54:36.425Z,555
2018-05-01T10:55:38.201Z,565
2018-05-01T10:56:40.079Z,560
2018-05-01T10:57:41.983Z,575
2018-05-01T10:58:43.860Z,575
2018-05-01T10:59:58.061Z,585
2018-05-01T11:00:59.943Z,585
2018-05-01T11:02:01.848Z,580
2018-05-01T11:03:03.721Z,585
2018-05-01T11:04:05.544Z,595
2018-05-01T11:05:07.358Z,590
2018-05-01T11:06:09.259Z,580
2018-05-01T11:07:11.138Z,565
2018-05-01T11:08:13.057Z,550
2018-05-01T11:09:27.231Z,515
2018-05-01T11:10:29.114Z,485
2018-05-01T11:11:31.010Z,435
2018-05-01T11:12:32.887Z,395
2018-05-01T11:13:34.730Z,360
2018-05-01T11:14:36.550Z,345
2018-05-01T11:15:38.453Z,335
2018-05-01T11:16:40.330Z,320
2018-05-01T11:17:42.211Z,320
2018-05-01T11:18:56.443Z,310
2018-05-01T11:19:58.326Z,305
2018-05-01T11:21:00.213Z,305
2018-05-01T11:22:02.094Z,335
2018-05-01T11:23:03.905Z,385
2018-05-01T11:24:05.725Z,455
2018-05-01T11:25:07.605Z,485
2018-05-01T11:26:09.616Z,500
2018-05-01T11:27:11.404Z,495
2018-05-01T11:28:25.561Z,510
2018-05-01T11:29:27.439Z,520
2018-05-01T11:30:29.377Z,555
2018-05-01T11:31:31.256Z,560
2018-05-01T11:32:33.094Z,570
2018-05-01T11:33:34.914Z,610
2018-05-01T11:34:36.789Z,655
2018-05-01T11:35:39.354Z,690
2018-05-01T11:36:41.143Z,685
2018-05-01T11:37:55.324Z,680
2018-05-01T11:38:57.252Z,650
2018-05-01T11:39:59.140Z,620
2018-05-01T11:41:01.018Z,600
2018-05-01T11:42:02.839Z,545
2018-05-01T11:43:04.681Z,515
2018-05-01T11:44:06.578Z,495
2018-05-01T11:45:08.460Z,500
2018-05-01T11:46:10.340Z,505
2018-05-01T11:47:24.496Z,520
2018-05-01T11:48:26.378Z,500
2018-05-01T11:49:28.283Z,455
2018-05-01T11:50:30.187Z,450
2018-05-01T11:51:32.033Z,450
2018-05-01T11:52:33.845Z,475
2018-05-01T11:53:35.722Z,525
2018-05-01T11:54:37.602Z,515
2018-05-01T11:55:39.507Z,495
2018-05-01T11:56:53.665Z,525
2018-05-01T11:57:55.572Z,535
2018-05-01T11:58:57.450Z,540
2018-05-01T11:59:59.330Z,560
2018-05-01T12:01:01.175Z,610
2018-05-01T12:02:03.011Z,655
2018-05-01T12:03:04.897Z,640
2018-05-01T12:04:06.798Z,605
2018-05-01T12:05:08.702Z,585
2018-05-01T12:06:22.880Z,590
2018-05-01T12:07:24.781Z,570
2018-05-01T12:08:26.660Z,545
2018-05-01T12:09:28.549Z,525
2018-05-01T12:10:30.471Z,525
2018-05-01T12:11:32.207Z,540
2018-05-01T12:12:34.105Z,545
2018-05-01T12:13:36.180Z,550
2018-05-01T12:14:38.068Z,565
2018-05-01T12:15:52.331Z,560
2018-05-01T12:16:54.448Z,590
2018-05-01T12:17:56.418Z,595
2018-05-01T12:18:58.368Z,610
2018-05-01T12:20:00.187Z,595
2018-05-01T12:21:02.022Z,545
2018-05-01T12:22:03.928Z,515
2018-05-01T12:23:05.800Z,495
2018-05-01T12:24:07.687Z,495
2018-05-01T12:25:21.866Z,555
2018-05-01T12:26:23.768Z,545
2018-05-01T12:27:25.647Z,510
2018-05-01T12:28:27.523Z,470
2018-05-01T12:29:29.359Z,470
2018-05-01T12:30:31.174Z,475
2018-05-01T12:31:33.053Z,495
2018-05-01T12:32:34.941Z,500
2018-05-01T12:33:36.821Z,480
2018-05-01T12:34:51.023Z,430
2018-05-01T12:35:52.907Z,410
2018-05-01T12:36:54.819Z,400
2018-05-01T12:37:56.691Z,410
2018-05-01T12:38:58.524Z,420
2018-05-01T12:40:00.356Z,400
2018-05-01T12:41:02.256Z,390
2018-05-01T12:42:04.137Z,390
2018-05-01T12:43:06.036Z,395
2018-05-01T12:44:20.256Z,400
2018-05-01T12:45:22.254Z,380
2018-05-01T12:46:24.184Z,370
2018-05-01T12:47:26.120Z,370
2018-05-01T12:48:28.038Z,375
2018-05-01T12:49:29.760Z,370
2018-05-01T12:50:31.696Z,350
2018-05-01T12:51:33.634Z,330
2018-05-01T12:52:35.554Z,305
2018-05-01T12:53:49.739Z,300
2018-05-01T12:54:51.601Z,305
2018-05-01T12:55:53.526Z,305
2018-05-01T12:56:55.456Z,295
2018-05-01T12:57:57.313Z,280
2018-05-01T12:58:59.129Z,265
2018-05-01T13:00:01.009Z,255
2018-05-01T13:01:02.908Z,245
2018-05-01T13:02:04.801Z,240
2018-05-01T13:03:18.976Z,230
2018-05-01T13:04:20.873Z,225
2018-05-01T13:05:22.758Z,225
2018-05-01T13:06:24.657Z,225
2018-05-01T13:07:26.472Z,235
2018-05-01T13:08:28.313Z,225
2018-05-01T13:09:30.236Z,220
2018-05-01T13:10:32.107Z,215
2018-05-01T13:11:34.111Z,215
2018-05-01T13:12:48.269Z,210
2018-05-01T13:13:50.200Z,210
2018-05-01T13:14:52.116Z,210
2018-05-01T13:15:54.004Z,210
2018-05-01T13:16:55.863Z,205
2018-05-01T13:17:57.727Z,210
2018-05-01T13:18:59.674Z,210
2018-05-01T13:20:01.594Z,210
2018-05-01T13:21:03.491Z,210
2018-05-01T13:22:17.663Z,210
2018-05-01T13:23:19.539Z,210
2018-05-01T13:24:21.464Z,210
2018-05-01T13:25:23.409Z,215
2018-05-01T13:26:25.295Z,215
2018-05-01T13:27:27.202Z,215
2018-05-01T13:28:29.088Z,215
2018-05-01T13:29:31.046Z,215
2018-05-01T13:30:32.956Z,215
2018-05-01T13:31:47.113Z,215
2018-05-01T13:32:49.017Z,220
2018-05-01T13:33:50.915Z,225
2018-05-01T13:34:52.829Z,220
2018-05-01T13:35:54.662Z,220
2018-05-01T13:36:56.474Z,225
2018-05-01T13:37:58.387Z,225
2018-05-01T13:39:00.247Z,240
2018-05-01T13:40:02.150Z,250
2018-05-01T13:41:16.322Z,260
2018-05-01T13:42:18.197Z,260
2018-05-01T13:43:20.068Z,290
2018-05-01T13:44:21.947Z,310
2018-05-01T13:45:23.919Z,310
2018-05-01T13:46:25.597Z,330
2018-05-01T13:47:27.489Z,320
2018-05-01T13:48:29.373Z,295
2018-05-01T13:49:31.275Z,290
2018-05-01T13:50:45.451Z,300
2018-05-01T13:51:47.328Z,315
2018-05-01T13:52:49.238Z,325
2018-05-01T13:53:51.118Z,330
2018-05-01T13:54:52.937Z,330
2018-05-01T13:55:54.784Z,320
2018-05-01T13:56:56.672Z,315
2018-05-01T13:57:58.547Z,310
2018-05-01T13:59:00.426Z,310
2018-05-01T14:00:14.581Z,305
2018-05-01T14:01:16.458Z,300
2018-05-01T14:02:18.363Z,295
2018-05-01T14:03:20.277Z,285
2018-05-01T14:04:22.411Z,250
2018-05-01T14:05:24.213Z,275
2018-05-01T14:06:26.144Z,265
2018-05-01T14:07:27.970Z,260
2018-05-01T14:08:29.902Z,265
2018-05-01T14:09:44.126Z,250
2018-05-01T14:10:46.000Z,245
2018-05-01T14:11:47.903Z,240
2018-05-01T14:12:49.802Z,235
2018-05-01T14:13:51.621Z,235
2018-05-01T14:14:53.433Z,235
2018-05-01T14:15:55.332Z,235
2018-05-01T14:16:57.235Z,235
2018-05-01T14:17:59.116Z,235
2018-05-01T14:19:13.327Z,235
2018-05-01T14:20:15.254Z,235
2018-05-01T14:21:17.120Z,235
2018-05-01T14:22:19.046Z,240
2018-05-01T14:23:21.225Z,240
2018-05-01T14:24:23.022Z,250
2018-05-01T14:25:24.997Z,250
2018-05-01T14:26:26.797Z,250
2018-05-01T14:27:28.694Z,245
2018-05-01T14:28:42.852Z,245
2018-05-01T14:29:44.753Z,240
2018-05-01T14:30:46.659Z,240
2018-05-01T14:31:48.548Z,240
2018-05-01T14:32:50.364Z,245
2018-05-01T14:33:52.197Z,255
2018-05-01T14:34:54.071Z,260
2018-05-01T14:35:55.952Z,260
2018-05-01T14:36:57.852Z,260
2018-05-01T14:38:12.057Z,255
2018-05-01T14:39:13.935Z,250
2018-05-01T14:40:15.816Z,255
2018-05-01T14:41:17.699Z,250
2018-05-01T14:42:19.536Z,245
2018-05-01T14:43:21.353Z,245
2018-05-01T14:44:23.252Z,255
2018-05-01T14:45:25.137Z,270
2018-05-01T14:46:27.118Z,290
2018-05-01T14:47:41.214Z,300
2018-05-01T14:48:43.086Z,295
2018-05-01T14:49:44.988Z,290
2018-05-01T14:50:46.888Z,265
2018-05-01T14:51:48.736Z,235
2018-05-01T14:52:50.567Z,215
2018-05-01T14:53:52.467Z,220
2018-05-01T14:54:54.343Z,230
2018-05-01T14:55:56.246Z,265
2018-05-01T14:57:10.421Z,295
2018-05-01T14:58:12.296Z,300
2018-05-01T14:59:14.169Z,300
2018-05-01T15:00:16.045Z,305
2018-05-01T15:01:17.865Z,305
2018-05-01T15:02:19.701Z,295
2018-05-01T15:03:21.572Z,285
2018-05-01T15:04:23.459Z,280
2018-05-01T15:05:25.348Z,275
2018-05-01T15:06:39.524Z,265
2018-05-01T15:07:41.402Z,265
2018-05-01T15:08:43.280Z,255
2018-05-01T15:09:45.180Z,245
2018-05-01T15:10:46.993Z,240
2018-05-01T15:11:48.829Z,240
2018-05-01T15:12:50.728Z,245
2018-05-01T15:13:52.624Z,240
2018-05-01T15:14:54.507Z,240
2018-05-01T15:16:08.688Z,240
2018-05-01T15:17:10.563Z,240
2018-05-01T15:18:12.461Z,235
2018-05-01T15:19:14.443Z,225
2018-05-01T15:20:16.197Z,250
2018-05-01T15:21:18.033Z,260
2018-05-01T15:22:19.932Z,260
2018-05-01T15:23:21.828Z,260
2018-05-01T15:24:23.754Z,265
2018-05-01T15:25:37.955Z,275
2018-05-01T15:26:39.726Z,295
2018-05-01T15:27:41.622Z,320
2018-05-01T15:28:43.503Z,330
2018-05-01T15:29:45.339Z,330
2018-05-01T15:30:47.154Z,320
2018-05-01T15:31:49.028Z,310
2018-05-01T15:32:50.908Z,315
2018-05-01T15:33:52.812Z,320
2018-05-01T15:35:06.984Z,335
2018-05-01T15:36:08.861Z,340
2018-05-01T15:37:10.738Z,350
2018-05-01T15:38:12.633Z,375
2018-05-01T15:39:14.450Z,395
2018-05-01T15:40:16.261Z,405
2018-05-01T15:41:18.136Z,400
2018-05-01T15:42:20.021Z,415
2018-05-01T15:43:21.923Z,420
2018-05-01T15:44:36.079Z,425
2018-05-01T15:45:37.954Z,425
2018-05-01T15:46:39.830Z,425
2018-05-01T15:47:41.731Z,425
2018-05-01T15:48:43.571Z,420
2018-05-01T15:49:45.389Z,410
2018-05-01T15:50:47.261Z,405
2018-05-01T15:51:49.144Z,405
2018-05-01T15:52:51.045Z,405
2018-05-01T15:54:05.221Z,385
2018-05-01T15:55:07.082Z,360
2018-05-01T15:56:09.000Z,340
2018-05-01T15:57:10.900Z,325
2018-05-01T15:58:12.714Z,310
2018-05-01T15:59:14.529Z,300
2018-05-01T16:00:16.402Z,310
2018-05-01T16:01:18.284Z,325
2018-05-01T16:02:20.184Z,330
2018-05-01T16:03:34.341Z,340
2018-05-01T16:04:36.243Z,340
2018-05-01T16:05:38.141Z,325
2018-05-01T16:06:40.112Z,320
2018-05-01T16:07:41.857Z,315
2018-05-01T16:08:43.669Z,295
2018-05-01T16:09:45.545Z,290
2018-05-01T16:10:47.425Z,280
2018-05-01T16:11:49.324Z,275
2018-05-01T16:13:03.482Z,270
2018-05-01T16:14:05.443Z,270
2018-05-01T16:15:07.263Z,270
2018-05-01T16:16:09.136Z,275
2018-05-01T16:17:10.981Z,270
2018-05-01T16:18:12.817Z,265
2018-05-01T16:19:14.690Z,260
2018-05-01T16:20:16.569Z,260
2018-05-01T16:21:18.450Z,255
2018-05-01T16:22:32.606Z,260
2018-05-01T16:23:34.508Z,275
2018-05-01T16:24:36.403Z,275
2018-05-01T16:25:38.286Z,270
2018-05-01T16:26:40.103Z,260
2018-05-01T16:27:41.920Z,255
2018-05-01T16:28:43.800Z,240
2018-05-01T16:29:45.700Z,230
2018-05-01T16:30:47.583Z,225
2018-05-01T16:32:01.756Z,230
2018-05-01T16:33:03.657Z,240
2018-05-01T16:34:05.573Z,255
2018-05-01T16:35:07.452Z,270
2018-05-01T16:36:09.289Z,265
2018-05-01T16:37:11.105Z,260
2018-05-01T16:38:12.982Z,265
2018-05-01T16:39:14.886Z,265
2018-05-01T16:40:16.826Z,265
2018-05-01T16:41:30.946Z,270
2018-05-01T16:42:32.851Z,270
2018-05-01T16:43:34.726Z,270
2018-05-01T16:44:36.606Z,265
2018-05-01T16:45:38.466Z,265
2018-05-01T16:46:40.273Z,260
2018-05-01T16:47:42.158Z,260
2018-05-01T16:48:44.061Z,260
2018-05-01T16:49:45.938Z,260
2018-05-01T16:51:00.090Z,275
2018-05-01T16:52:01.998Z,275
2018-05-01T16:53:03.899Z,265
2018-05-01T16:54:05.772Z,255
2018-05-01T16:55:07.597Z,245
2018-05-01T16:56:09.429Z,250
2018-05-01T16:57:11.334Z,260
2018-05-01T16:58:13.214Z,240
2018-05-01T16:59:15.120Z,215
2018-05-01T17:00:29.297Z,225
2018-05-01T17:01:31.176Z,220
2018-05-01T17:02:33.078Z,200
2018-05-01T17:03:34.954Z,165
2018-05-01T17:04:36.770Z,160
2018-05-01T17:05:38.588Z,150
2018-05-01T17:06:40.568Z,150
2018-05-01T17:07:42.368Z,150
2018-05-01T17:08:44.241Z,155
2018-05-01T17:09:58.446Z,160
2018-05-01T17:11:00.349Z,165
2018-05-01T17:12:02.253Z,175
2018-05-01T17:13:04.154Z,185
2018-05-01T17:14:05.996Z,190
2018-05-01T17:15:07.827Z,195
2018-05-01T17:16:09.708Z,195
2018-05-01T17:17:11.612Z,195
2018-05-01T17:18:13.512Z,190
2018-05-01T17:19:27.667Z,175
2018-05-01T17:20:29.573Z,170
2018-05-01T17:21:31.470Z,170
2018-05-01T17:22:33.358Z,170
2018-05-01T17:23:35.192Z,165
2018-05-01T17:24:37.013Z,160
2018-05-01T17:25:38.917Z,150
2018-05-01T17:26:40.815Z,145
2018-05-01T17:27:42.697Z,140
2018-05-01T17:28:56.872Z,125
2018-05-01T17:29:58.741Z,120
2018-05-01T17:31:00.616Z,115
2018-05-01T17:32:02.492Z,110
2018-05-01T17:33:04.312Z,105
2018-05-01T17:34:06.121Z,105
2018-05-01T17:35:08.000Z,105
2018-05-01T17:36:09.922Z,100
2018-05-01T17:37:11.822Z,100
2018-05-01T17:38:25.973Z,100
2018-05-01T17:39:27.848Z,105
2018-05-01T17:40:29.744Z,100
2018-05-01T17:41:31.617Z,95
2018-05-01T17:42:33.467Z,95
2018-05-01T17:43:35.323Z,90
2018-05-01T17:44:37.193Z,90
2018-05-01T17:45:39.117Z,85
2018-05-01T17:46:40.997Z,85
2018-05-01T17:47:55.164Z,80
2018-05-01T17:48:57.036Z,75
2018-05-01T17:49:58.913Z,75
2018-05-01T17:51:00.810Z,70
2018-05-01T17:52:02.621Z,65
2018-05-01T17:53:04.457Z,65
2018-05-01T17:54:06.357Z,65
2018-05-01T17:55:08.256Z,65
2018-05-01T17:56:10.147Z,65
2018-05-01T17:57:24.343Z,60
2018-05-01T17:58:26.196Z,60
2018-05-01T17:59:28.057Z,60
2018-05-01T18:00:29.935Z,60
2018-05-01T18:01:31.772Z,55
2018-05-01T18:02:33.585Z,50
2018-05-01T18:03:35.451Z,55
2018-05-01T18:04:37.330Z,55
2018-05-01T18:05:39.233Z,55
2018-05-01T18:06:53.375Z,50
2018-05-01T18:07:55.276Z,45
2018-05-01T18:08:57.210Z,40
2018-05-01T18:09:59.178Z,40
2018-05-01T18:11:00.993Z,35
2018-05-01T18:12:02.814Z,35
2018-05-01T18:13:04.700Z,30
2018-05-01T18:14:06.569Z,30
2018-05-01T18:15:08.442Z,25
2018-05-01T18:16:22.614Z,25
2018-05-01T18:17:24.485Z,25
2018-05-01T18:18:26.357Z,20
2018-05-01T18:19:28.253Z,20
2018-05-01T18:20:30.060Z,15
2018-05-01T18:21:31.876Z,15
2018-05-01T18:22:33.770Z,15
2018-05-01T18:23:35.670Z,15
2018-05-01T18:24:37.566Z,10
2018-05-01T18:25:51.718Z,10
2018-05-01T18:26:53.587Z,10
2018-05-01T18:27:55.485Z,10
2018-05-01T18:28:57.381Z,5
2018-05-01T18:29:59.186Z,5
2018-05-01T18:31:00.999Z,5
2018-05-01T18:32:02.866Z,5
2018-05-01T18:33:04.757Z,5
2018-05-01T18:34:06.639Z,5
2018-05-01T18:35:20.816Z,0
2018-05-01T18:36:22.795Z,0
2018-05-01T18:37:24.595Z,0
2018-05-01T18:38:26.492Z,0
2018-05-01T18:39:28.321Z,0
2018-05-01T18:40:30.135Z,0
2018-05-01T18:41:32.005Z,0
2018-05-01T18:42:33.899Z,0
2018-05-01T18:43:35.793Z,0
2018-05-01T18:44:50.001Z,0
2018-05-01T18:45:51.837Z,0
2018-05-01T18:46:53.725Z,0
2018-05-01T18:47:55.599Z,0
2018-05-01T18:48:57.433Z,0
2018-05-01T18:49:59.260Z,0
2018-05-01T18:51:01.212Z,0
2018-05-01T18:52:02.998Z,0
2018-05-01T18:53:04.887Z,0
2018-05-01T18:54:19.030Z,0
2018-05-01T18:55:20.904Z,0
2018-05-01T18:56:22.794Z,0
2018-05-01T18:57:24.666Z,0
2018-05-01T18:58:26.498Z,0
2018-05-01T18:59:28.319Z,0
2018-05-01T19:00:30.189Z,0
2018-05-01T19:01:32.083Z,0
2018-05-01T19:02:33.949Z,0
2018-05-01T19:03:48.098Z,0
2018-05-01T19:04:50.040Z,0
2018-05-01T19:05:51.865Z,0
2018-05-01T19:06:53.737Z,0
2018-05-01T19:07:55.561Z,0
2018-05-01T19:08:57.371Z,0
